Rollinsford, New Hampshire
Current Conditions -  °F | °C
As of 3:51 AM on Thursday 27 Nov 2014 (Local Time) from KDAW Reporting Station
Haze Haze  
Wind Chill: 22°   Ceiling: 4400
Heat Index: 32°   Visibility: 4mi
Dew Point: 30°   Wind: 14mph
Humidity: 92%   Direction: 330°NNW
Pressure: 29.74"   Gusts: NA
Location:  43.24°N, 70.82°W
Report Text: KDAW 270851Z AUTO 33012KT 4SM BR FEW012 BKN044 OVC075 00/M01 A2974 RMK AO2 SNB0755E46 SLP071 P0002 60003 T00001011 $
Loading
Personal Weather Stations






























Interactive Weather Map New forecast layout! Learn more

10-Day Weather Forecast

Advertisements
Track Severe Weather on mobile